Terminal Aerodrome Forecast
Issued by NWS Jackson, MS

Home | Current Version | Previous Version | Text Only | Print | Product List | Glossary On
Versions: 1 2 3 4 5 6 7 8 9 10 11 12 13 14
000
FTUS44 KMEG 181130
TAFTUP
TAF
KTUP 181130Z 1812/1912 09005KT 6SM -RA BR SCT025 OVC050
     FM181700 VRB02KT P6SM OVC040
     FM190000 05004KT P6SM SCT015 OVC100
      TEMPO 1908/1912 5SM BR=

USA.gov is the U.S. government's official web portal to all federal, state and local government web resources and services.